Terminal Aerodrome Forecast
Issued by NWS

Home | Current Version | Previous Version | Text Only | Print | Product List | Glossary On
Versions: 1 2 3 4 5 6 7 8 9 10 11 12 13 14 15 16 17
000
FTUS45 KLKN 280520
TAFELY
TAF
KELY 280520Z 2806/2906 34012KT P6SM VCSH SCT040 BKN060
     FM280800 32008KT P6SM SCT080 SCT200
     FM281800 33016G25KT P6SM SCT100 BKN200
     FM290300 34008KT P6SM SCT200
      AMD NOT SKED=

USA.gov is the U.S. government's official web portal to all federal, state and local government web resources and services.